createdAt,value
2017-08-23T00:00:26.613Z,1.6
2017-08-23T00:01:29.484Z,1.5
2017-08-23T00:02:33.022Z,1.5
2017-08-23T00:03:35.525Z,1.5
2017-08-23T00:04:38.693Z,1.5
2017-08-23T00:05:41.533Z,1.6
2017-08-23T00:06:44.005Z,1.5
2017-08-23T00:07:46.841Z,1.5
2017-08-23T00:08:49.690Z,1.5
2017-08-23T00:09:52.740Z,1.5
2017-08-23T00:10:55.237Z,1.5
2017-08-23T00:11:58.407Z,1.5
2017-08-23T00:13:00.906Z,1.4
2017-08-23T00:14:04.094Z,1.5
2017-08-23T00:15:07.290Z,1.5
2017-08-23T00:16:09.796Z,1.5
2017-08-23T00:17:12.642Z,1.5
2017-08-23T00:18:15.143Z,1.5
2017-08-23T00:19:17.637Z,1.6
2017-08-23T00:20:20.144Z,1.5
2017-08-23T00:21:23.000Z,1.5
2017-08-23T00:22:25.519Z,1.6
2017-08-23T00:23:28.029Z,1.5
2017-08-23T00:24:30.860Z,1.5
2017-08-23T00:25:33.355Z,1.6
2017-08-23T00:26:37.569Z,1.5
2017-08-23T00:27:40.117Z,1.4
2017-08-23T00:28:42.622Z,1.6
2017-08-23T00:29:45.131Z,1.5
2017-08-23T00:30:47.608Z,1.5
2017-08-23T00:31:50.108Z,1.5
2017-08-23T00:32:52.958Z,1.6
2017-08-23T00:33:55.799Z,1.5
2017-08-23T00:34:58.294Z,1.4
2017-08-23T00:36:01.801Z,1.6
2017-08-23T00:37:04.295Z,1.5
2017-08-23T00:38:06.835Z,1.5
2017-08-23T00:39:09.335Z,1.5
2017-08-23T00:40:11.848Z,1.5
2017-08-23T00:41:15.080Z,1.4
2017-08-23T00:42:18.154Z,1.5
2017-08-23T00:43:20.712Z,1.5
2017-08-23T00:44:23.860Z,1.4
2017-08-23T00:45:28.026Z,1.5
2017-08-23T00:46:30.768Z,1.5
2017-08-23T00:47:33.701Z,1.4
2017-08-23T00:48:36.804Z,1.5
2017-08-23T00:49:39.758Z,1.5
2017-08-23T00:50:42.253Z,1.6
2017-08-23T00:51:45.433Z,1.5
2017-08-23T00:52:48.607Z,1.5
2017-08-23T00:53:51.094Z,1.6
2017-08-23T00:54:53.936Z,1.5
2017-08-23T00:55:56.445Z,1.6
2017-08-23T00:56:58.937Z,1.5
2017-08-23T00:58:02.464Z,1.5
2017-08-23T00:59:04.971Z,1.5
2017-08-23T01:00:08.158Z,1.6
2017-08-23T01:01:11.000Z,1.5
2017-08-23T01:02:13.488Z,1.4
2017-08-23T01:03:16.329Z,1.4
2017-08-23T01:04:19.189Z,1.4
2017-08-23T01:05:21.679Z,1.5
2017-08-23T01:06:24.177Z,1.5
2017-08-23T01:07:26.673Z,1.5
2017-08-23T01:08:29.500Z,1.4
2017-08-23T01:09:32.026Z,1.5
2017-08-23T01:10:34.531Z,1.4
2017-08-23T01:11:37.032Z,1.4
2017-08-23T01:12:39.878Z,1.5
2017-08-23T01:13:43.070Z,1.5
2017-08-23T01:14:45.912Z,1.5
2017-08-23T01:15:48.412Z,1.6
2017-08-23T01:16:50.919Z,1.4
2017-08-23T01:17:53.415Z,1.5
2017-08-23T01:18:55.925Z,1.5
2017-08-23T01:19:58.757Z,1.5
2017-08-23T01:21:01.585Z,1.5
2017-08-23T01:22:04.436Z,1.4
2017-08-23T01:23:07.290Z,1.5
2017-08-23T01:24:10.480Z,1.5
2017-08-23T01:25:12.970Z,1.5
2017-08-23T01:26:15.487Z,1.4
2017-08-23T01:27:18.002Z,1.5
2017-08-23T01:28:20.490Z,1.4
2017-08-23T01:29:23.338Z,1.5
2017-08-23T01:30:25.820Z,1.4
2017-08-23T01:31:28.325Z,1.4
2017-08-23T01:32:30.817Z,1.4
2017-08-23T01:33:33.312Z,1.4
2017-08-23T01:34:35.814Z,1.4
2017-08-23T01:35:38.342Z,1.4
2017-08-23T01:36:40.855Z,1.4
2017-08-23T01:37:43.361Z,1.5
2017-08-23T01:38:45.855Z,1.4
2017-08-23T01:39:49.033Z,1.5
2017-08-23T01:40:51.530Z,1.5
2017-08-23T01:41:54.387Z,1.5
2017-08-23T01:42:56.868Z,1.4
2017-08-23T01:43:59.378Z,1.4
2017-08-23T01:45:02.214Z,1.4
2017-08-23T01:46:04.726Z,1.4
2017-08-23T01:47:07.250Z,1.4
2017-08-23T01:48:10.426Z,1.4
2017-08-23T01:49:13.271Z,1.5
2017-08-23T01:50:17.143Z,1.4
2017-08-23T01:51:19.965Z,1.4
2017-08-23T01:52:22.810Z,1.4
2017-08-23T01:53:25.666Z,1.4
2017-08-23T01:54:28.477Z,1.4
2017-08-23T01:55:31.322Z,1.5
2017-08-23T01:56:34.857Z,1.4
2017-08-23T01:57:37.358Z,1.5
2017-08-23T01:58:39.863Z,1.4
2017-08-23T01:59:43.370Z,1.4
2017-08-23T02:00:45.857Z,1.4
2017-08-23T02:01:48.702Z,1.4
2017-08-23T02:02:51.201Z,1.4
2017-08-23T02:03:54.062Z,1.4
2017-08-23T02:04:56.917Z,1.4
2017-08-23T02:06:00.441Z,1.5
2017-08-23T02:07:03.963Z,1.4
2017-08-23T02:08:07.144Z,1.4
2017-08-23T02:09:09.629Z,1.5
2017-08-23T02:10:12.810Z,1.4
2017-08-23T02:11:15.654Z,1.4
2017-08-23T02:12:18.148Z,1.4
2017-08-23T02:13:20.643Z,1.4
2017-08-23T02:14:23.163Z,1.4
2017-08-23T02:15:25.998Z,1.4
2017-08-23T02:16:28.512Z,1.4
2017-08-23T02:17:31.348Z,1.4
2017-08-23T02:18:33.825Z,1.4
2017-08-23T02:19:36.329Z,1.4
2017-08-23T02:20:38.817Z,1.4
2017-08-23T02:21:41.656Z,1.5
2017-08-23T02:22:44.489Z,1.5
2017-08-23T02:23:46.982Z,1.4
2017-08-23T02:24:49.479Z,1.4
2017-08-23T02:25:52.661Z,1.5
2017-08-23T02:26:55.490Z,1.5
2017-08-23T02:27:57.992Z,1.4
2017-08-23T02:29:00.472Z,1.5
2017-08-23T02:30:03.351Z,1.5
2017-08-23T02:31:06.558Z,1.5
2017-08-23T02:32:09.058Z,1.5
2017-08-23T02:33:11.566Z,1.4
2017-08-23T02:34:15.443Z,1.4
2017-08-23T02:35:17.934Z,1.5
2017-08-23T02:36:21.127Z,1.5
2017-08-23T02:37:23.630Z,1.4
2017-08-23T02:38:26.464Z,1.5
2017-08-23T02:39:28.961Z,1.5
2017-08-23T02:40:32.150Z,1.5
2017-08-23T02:41:35.338Z,1.5
2017-08-23T02:42:38.217Z,1.4
2017-08-23T02:43:41.048Z,1.4
2017-08-23T02:44:43.564Z,1.4
2017-08-23T02:45:46.053Z,1.4
2017-08-23T02:46:48.892Z,1.4
2017-08-23T02:47:52.093Z,1.4
2017-08-23T02:48:54.947Z,1.4
2017-08-23T02:49:57.781Z,1.5
2017-08-23T02:51:00.963Z,1.4
2017-08-23T02:52:04.148Z,1.5
2017-08-23T02:53:06.640Z,1.4
2017-08-23T02:54:09.493Z,1.4
2017-08-23T02:55:11.993Z,1.5
2017-08-23T02:56:14.490Z,1.4
2017-08-23T02:57:16.997Z,1.4
2017-08-23T02:58:19.841Z,1.4
2017-08-23T02:59:22.353Z,1.5
2017-08-23T03:00:24.876Z,1.4
2017-08-23T03:01:27.382Z,1.4
2017-08-23T03:02:30.254Z,1.4
2017-08-23T03:03:33.417Z,1.5
2017-08-23T03:04:35.919Z,1.4
2017-08-23T03:05:38.407Z,1.5
2017-08-23T03:06:40.929Z,1.5
2017-08-23T03:07:43.773Z,1.4
2017-08-23T03:08:46.288Z,1.4
2017-08-23T03:09:48.791Z,1.5
2017-08-23T03:10:51.291Z,1.5
2017-08-23T03:11:53.786Z,1.6
2017-08-23T03:12:56.288Z,1.5
2017-08-23T03:13:58.780Z,1.4
2017-08-23T03:15:01.296Z,1.5
2017-08-23T03:16:03.807Z,1.5
2017-08-23T03:17:06.318Z,1.6
2017-08-23T03:18:08.807Z,1.6
2017-08-23T03:19:11.312Z,1.4
2017-08-23T03:20:13.800Z,1.5
2017-08-23T03:21:16.645Z,1.6
2017-08-23T03:22:19.484Z,1.6
2017-08-23T03:23:21.982Z,1.4
2017-08-23T03:24:24.496Z,1.6
2017-08-23T03:25:27.017Z,1.5
2017-08-23T03:26:29.877Z,1.4
2017-08-23T03:27:32.740Z,1.5
2017-08-23T03:28:35.592Z,1.4
2017-08-23T03:29:38.095Z,1.5
2017-08-23T03:30:40.609Z,1.4
2017-08-23T03:31:43.465Z,1.5
2017-08-23T03:32:45.979Z,1.4
2017-08-23T03:33:48.491Z,1.5
2017-08-23T03:34:50.988Z,1.4
2017-08-23T03:35:53.493Z,1.5
2017-08-23T03:36:56.337Z,1.5
2017-08-23T03:37:58.834Z,1.5
2017-08-23T03:39:01.677Z,1.4
2017-08-23T03:40:04.175Z,1.4
2017-08-23T03:41:06.684Z,1.5
2017-08-23T03:42:09.195Z,1.4
2017-08-23T03:43:12.029Z,1.4
2017-08-23T03:44:14.526Z,1.4
2017-08-23T03:45:17.355Z,1.4
2017-08-23T03:46:20.193Z,1.5
2017-08-23T03:47:22.696Z,1.4
2017-08-23T03:48:25.875Z,1.4
2017-08-23T03:49:29.378Z,1.4
2017-08-23T03:50:32.570Z,1.4
2017-08-23T03:51:35.745Z,1.4
2017-08-23T03:52:38.589Z,1.4
2017-08-23T03:53:41.758Z,1.4
2017-08-23T03:54:44.945Z,1.5
2017-08-23T03:55:48.461Z,1.5
2017-08-23T03:56:51.311Z,1.4
2017-08-23T03:57:53.807Z,1.5
2017-08-23T03:58:56.320Z,1.4
2017-08-23T03:59:59.494Z,1.4
2017-08-23T04:01:03.008Z,1.4
2017-08-23T04:02:05.851Z,1.4
2017-08-23T04:03:08.348Z,1.4
2017-08-23T04:04:10.843Z,1.3
2017-08-23T04:05:13.378Z,1.4
2017-08-23T04:06:15.864Z,1.4
2017-08-23T04:07:18.724Z,1.4
2017-08-23T04:08:21.234Z,1.3
2017-08-23T04:09:23.739Z,1.3
2017-08-23T04:10:26.252Z,1.4
2017-08-23T04:11:28.742Z,1.4
2017-08-23T04:12:31.238Z,1.4
2017-08-23T04:13:33.729Z,1.4
2017-08-23T04:14:36.903Z,1.4
2017-08-23T04:15:39.390Z,1.4
2017-08-23T04:16:41.897Z,1.4
2017-08-23T04:17:45.087Z,1.4
2017-08-23T04:18:47.939Z,1.4
2017-08-23T04:19:50.434Z,1.4
2017-08-23T04:20:53.279Z,1.4
2017-08-23T04:21:56.482Z,1.4
2017-08-23T04:22:58.960Z,1.4
2017-08-23T04:24:01.468Z,1.5
2017-08-23T04:25:04.672Z,1.4
2017-08-23T04:26:07.501Z,1.4
2017-08-23T04:27:10.338Z,1.4
2017-08-23T04:28:12.841Z,1.4
2017-08-23T04:29:15.364Z,1.4
2017-08-23T04:30:17.876Z,1.4
2017-08-23T04:31:20.699Z,1.4
2017-08-23T04:32:23.523Z,1.4
2017-08-23T04:33:26.370Z,1.4
2017-08-23T04:34:29.594Z,1.4
2017-08-23T04:35:32.099Z,1.4
2017-08-23T04:36:34.953Z,1.4
2017-08-23T04:37:37.784Z,1.4
2017-08-23T04:38:40.294Z,1.4
2017-08-23T04:39:42.803Z,1.4
2017-08-23T04:40:45.638Z,1.4
2017-08-23T04:41:49.169Z,1.4
2017-08-23T04:42:52.008Z,1.4
2017-08-23T04:43:55.535Z,1.4
2017-08-23T04:44:58.395Z,1.4
2017-08-23T04:46:01.230Z,1.4
2017-08-23T04:47:04.752Z,1.4
2017-08-23T04:48:07.930Z,1.4
2017-08-23T04:49:10.773Z,1.5
2017-08-23T04:50:13.266Z,1.4
2017-08-23T04:51:15.768Z,1.4
2017-08-23T04:52:18.606Z,1.4
2017-08-23T04:53:21.435Z,1.4
2017-08-23T04:54:24.261Z,1.4
2017-08-23T04:55:27.124Z,1.4
2017-08-23T04:56:29.676Z,1.4
2017-08-23T04:57:32.516Z,1.5
2017-08-23T04:58:35.372Z,1.4
2017-08-23T04:59:37.870Z,1.4
2017-08-23T05:00:40.705Z,1.4
2017-08-23T05:01:43.879Z,1.4
2017-08-23T05:02:46.719Z,1.4
2017-08-23T05:03:49.203Z,1.4
2017-08-23T05:04:52.397Z,1.4
2017-08-23T05:05:55.590Z,1.4
2017-08-23T05:06:58.753Z,1.4
2017-08-23T05:08:01.604Z,1.4
2017-08-23T05:09:04.441Z,1.4
2017-08-23T05:10:07.342Z,1.4
2017-08-23T05:11:10.180Z,1.4
2017-08-23T05:12:13.012Z,1.4
2017-08-23T05:13:15.501Z,1.4
2017-08-23T05:14:18.346Z,1.5
2017-08-23T05:15:21.175Z,1.4
2017-08-23T05:16:24.697Z,1.4
2017-08-23T05:17:27.882Z,1.4
2017-08-23T05:18:30.381Z,1.4
2017-08-23T05:19:32.892Z,1.4
2017-08-23T05:20:35.765Z,1.4
2017-08-23T05:21:38.605Z,1.5
2017-08-23T05:22:41.101Z,1.4
2017-08-23T05:23:43.955Z,1.4
2017-08-23T05:24:46.451Z,1.4
2017-08-23T05:25:49.284Z,1.5
2017-08-23T05:26:52.121Z,1.5
2017-08-23T05:27:55.625Z,1.4
2017-08-23T05:28:58.792Z,1.5
2017-08-23T05:30:01.638Z,1.5
2017-08-23T05:31:04.152Z,1.6
2017-08-23T05:32:06.990Z,1.5
2017-08-23T05:33:09.832Z,1.5
2017-08-23T05:34:12.354Z,1.5
2017-08-23T05:35:14.856Z,1.5
2017-08-23T05:36:17.362Z,1.5
2017-08-23T05:37:19.869Z,1.5
2017-08-23T05:38:22.699Z,1.5
2017-08-23T05:39:25.572Z,1.4
2017-08-23T05:40:28.069Z,1.5
2017-08-23T05:41:31.238Z,1.4
2017-08-23T05:42:34.430Z,1.5
2017-08-23T05:43:36.929Z,1.5
2017-08-23T05:44:39.777Z,1.5
2017-08-23T05:45:42.645Z,1.5
2017-08-23T05:46:45.145Z,1.5
2017-08-23T05:47:47.995Z,1.5
2017-08-23T05:48:50.855Z,1.6
2017-08-23T05:49:53.675Z,1.5
2017-08-23T05:50:56.169Z,1.6
2017-08-23T05:51:59.345Z,1.5
2017-08-23T05:53:02.191Z,1.6
2017-08-23T05:54:04.728Z,1.6
2017-08-23T05:55:07.267Z,1.5
2017-08-23T05:56:09.780Z,1.5
2017-08-23T05:57:12.623Z,1.6
2017-08-23T05:58:15.128Z,1.6
2017-08-23T05:59:17.966Z,1.5
2017-08-23T06:00:20.458Z,1.5
2017-08-23T06:01:23.324Z,1.6
2017-08-23T06:02:26.526Z,1.6
2017-08-23T06:03:29.034Z,1.7
2017-08-23T06:04:31.864Z,1.6
2017-08-23T06:05:34.425Z,1.7
2017-08-23T06:06:36.927Z,1.7
2017-08-23T06:07:39.756Z,1.6
2017-08-23T06:08:42.264Z,1.6
2017-08-23T06:09:45.454Z,1.5
2017-08-23T06:10:48.297Z,1.7
2017-08-23T06:11:51.135Z,1.6
2017-08-23T06:12:53.970Z,1.7
2017-08-23T06:13:56.472Z,1.7
2017-08-23T06:14:59.014Z,1.7
2017-08-23T06:16:03.216Z,1.5
2017-08-23T06:17:05.692Z,1.5
2017-08-23T06:18:08.916Z,1.7
2017-08-23T06:19:11.778Z,1.6
2017-08-23T06:20:14.281Z,1.6
2017-08-23T06:21:16.788Z,1.6
2017-08-23T06:22:19.634Z,1.6
2017-08-23T06:23:22.827Z,1.6
2017-08-23T06:24:25.679Z,1.7
2017-08-23T06:25:28.516Z,1.6
2017-08-23T06:26:31.020Z,1.7
2017-08-23T06:27:33.549Z,1.6
2017-08-23T06:28:36.063Z,1.8
2017-08-23T06:29:38.547Z,1.6
2017-08-23T06:30:41.398Z,1.8
2017-08-23T06:31:44.566Z,1.8
2017-08-23T06:32:48.120Z,1.8
2017-08-23T06:33:51.008Z,1.8
2017-08-23T06:34:54.199Z,1.7
2017-08-23T06:35:57.035Z,1.8
2017-08-23T06:36:59.576Z,1.8
2017-08-23T06:38:02.747Z,1.8
2017-08-23T06:39:05.931Z,1.7
2017-08-23T06:40:08.432Z,1.7
2017-08-23T06:41:10.951Z,1.8
2017-08-23T06:42:13.791Z,1.7
2017-08-23T06:43:16.636Z,1.8
2017-08-23T06:44:19.133Z,1.7
2017-08-23T06:45:22.310Z,1.9
2017-08-23T06:46:24.852Z,1.8
2017-08-23T06:47:27.374Z,1.8
2017-08-23T06:48:29.868Z,1.8
2017-08-23T06:49:32.382Z,1.8
2017-08-23T06:50:35.215Z,1.9
2017-08-23T06:51:37.733Z,1.9
2017-08-23T06:52:40.566Z,1.9
2017-08-23T06:53:43.087Z,1.9
2017-08-23T06:54:45.928Z,2
2017-08-23T06:55:48.437Z,2
2017-08-23T06:56:50.946Z,2.1
2017-08-23T06:57:54.127Z,2
2017-08-23T06:58:56.627Z,2
2017-08-23T06:59:59.152Z,2.1
2017-08-23T07:01:01.653Z,2.1
2017-08-23T07:02:04.490Z,2.1
2017-08-23T07:03:07.016Z,2.1
2017-08-23T07:04:09.520Z,2
2017-08-23T07:05:12.726Z,2
2017-08-23T07:06:15.221Z,2
2017-08-23T07:07:18.063Z,2.1
2017-08-23T07:08:20.564Z,2
2017-08-23T07:09:23.431Z,2.1
2017-08-23T07:10:25.926Z,2.2
2017-08-23T07:11:28.430Z,2.2
2017-08-23T07:12:30.921Z,2.3
2017-08-23T07:13:33.433Z,2.2
2017-08-23T07:14:36.617Z,2.2
2017-08-23T07:15:39.128Z,2.2
2017-08-23T07:16:41.642Z,2.2
2017-08-23T07:17:44.510Z,2.2
2017-08-23T07:18:47.686Z,2.2
2017-08-23T07:19:50.524Z,2.2
2017-08-23T07:20:53.359Z,2.2
2017-08-23T07:21:55.879Z,2
2017-08-23T07:22:58.745Z,1.9
2017-08-23T07:24:01.937Z,2
2017-08-23T07:25:04.791Z,2
2017-08-23T07:26:07.631Z,2
2017-08-23T07:27:10.343Z,2
2017-08-23T07:28:13.195Z,2.1
2017-08-23T07:29:16.630Z,2.1
2017-08-23T07:30:19.152Z,2.1
2017-08-23T07:31:21.724Z,2
2017-08-23T07:32:24.373Z,2.1
2017-08-23T07:33:26.874Z,2.1
2017-08-23T07:34:29.401Z,2.2
2017-08-23T07:35:32.279Z,2.1
2017-08-23T07:36:35.134Z,2.1
2017-08-23T07:37:38.724Z,2.2
2017-08-23T07:38:41.578Z,2.1
2017-08-23T07:39:44.096Z,2.2
2017-08-23T07:40:46.621Z,2.2
2017-08-23T07:41:49.488Z,2.2
2017-08-23T07:42:51.991Z,2.2
2017-08-23T07:43:54.495Z,2.2
2017-08-23T07:44:57.355Z,2.2
2017-08-23T07:45:59.879Z,2.2
2017-08-23T07:47:02.730Z,2.3
2017-08-23T07:48:05.240Z,2.2
2017-08-23T07:49:08.088Z,2.2
2017-08-23T07:50:10.595Z,2.3
2017-08-23T07:51:13.446Z,2.3
2017-08-23T07:52:15.965Z,2.3
2017-08-23T07:53:19.704Z,2.3
2017-08-23T07:54:22.225Z,2.3
2017-08-23T07:55:24.729Z,2.2
2017-08-23T07:56:27.591Z,2.3
2017-08-23T07:57:30.103Z,2.3
2017-08-23T07:58:32.612Z,2.2
2017-08-23T07:59:35.805Z,2.4
2017-08-23T08:00:38.637Z,2.3
2017-08-23T08:01:41.835Z,2.3
2017-08-23T08:02:44.720Z,2.4
2017-08-23T08:03:47.213Z,2.4
2017-08-23T08:04:50.079Z,2.3
2017-08-23T08:05:52.933Z,2.3
2017-08-23T08:06:55.474Z,2.3
2017-08-23T08:07:58.375Z,2.4
2017-08-23T08:09:01.243Z,2.3
2017-08-23T08:10:04.074Z,2.4
2017-08-23T08:11:06.602Z,2.4
2017-08-23T08:12:09.113Z,2.4
2017-08-23T08:13:11.963Z,2.4
2017-08-23T08:14:14.486Z,2.3
2017-08-23T08:15:17.320Z,2.4
2017-08-23T08:16:19.853Z,2.4
2017-08-23T08:17:22.388Z,2.4
2017-08-23T08:18:25.238Z,2.4
2017-08-23T08:19:28.084Z,2.4
2017-08-23T08:20:30.589Z,2.4
2017-08-23T08:21:33.925Z,2.5
2017-08-23T08:22:36.621Z,2.5
2017-08-23T08:23:39.151Z,2.5
2017-08-23T08:24:41.754Z,2.5
2017-08-23T08:25:44.602Z,2.5
2017-08-23T08:26:47.461Z,2.5
2017-08-23T08:27:50.326Z,2.5
2017-08-23T08:28:53.187Z,2.5
2017-08-23T08:29:55.706Z,2.5
2017-08-23T08:30:58.557Z,2.4
2017-08-23T08:32:01.740Z,2.5
2017-08-23T08:33:04.948Z,2.5
2017-08-23T08:34:07.794Z,2.6
2017-08-23T08:35:10.311Z,2.6
2017-08-23T08:36:12.827Z,2.6
2017-08-23T08:37:15.680Z,2.5
2017-08-23T08:38:18.543Z,2.6
2017-08-23T08:39:21.398Z,2.6
2017-08-23T08:40:23.922Z,2.6
2017-08-23T08:41:26.824Z,2.6
2017-08-23T08:42:29.443Z,2.7
2017-08-23T08:43:32.660Z,2.6
2017-08-23T08:44:35.562Z,2.7
2017-08-23T08:45:38.078Z,2.7
2017-08-23T08:46:40.946Z,2.7
2017-08-23T08:47:43.798Z,2.7
2017-08-23T08:48:46.649Z,2.7
2017-08-23T08:49:49.154Z,2.7
2017-08-23T08:50:51.671Z,2.7
2017-08-23T08:51:54.193Z,2.8
2017-08-23T08:52:57.060Z,2.8
2017-08-23T08:53:59.908Z,2.8
2017-08-23T08:55:02.614Z,2.8
2017-08-23T08:56:05.861Z,2.8
2017-08-23T08:57:08.366Z,2.8
2017-08-23T08:58:11.223Z,2.8
2017-08-23T08:59:14.121Z,2.9
2017-08-23T09:00:16.635Z,2.9
2017-08-23T09:01:19.490Z,2.9
2017-08-23T09:02:22.385Z,2.8
2017-08-23T09:03:27.867Z,3
2017-08-23T09:04:30.388Z,3
2017-08-23T09:05:33.240Z,3
2017-08-23T09:06:35.744Z,3
2017-08-23T09:07:38.318Z,3.1
2017-08-23T09:08:41.526Z,3.1
2017-08-23T09:09:44.065Z,3.1
2017-08-23T09:10:47.609Z,3
2017-08-23T09:11:50.128Z,3.1
2017-08-23T09:12:53.326Z,3.1
2017-08-23T09:13:55.849Z,3
2017-08-23T09:14:58.700Z,3.2
2017-08-23T09:16:01.576Z,3.1
2017-08-23T09:17:04.775Z,3.2
2017-08-23T09:18:07.317Z,3.3
2017-08-23T09:19:10.183Z,3.3
2017-08-23T09:20:13.050Z,3.3
2017-08-23T09:21:15.580Z,3.3
2017-08-23T09:22:18.456Z,3.4
2017-08-23T09:23:20.984Z,3.4
2017-08-23T09:24:23.525Z,3.4
2017-08-23T09:25:26.048Z,3.6
2017-08-23T09:26:29.270Z,3.5
2017-08-23T09:27:32.130Z,3.3
2017-08-23T09:28:34.647Z,3.2
2017-08-23T09:29:37.856Z,3.3
2017-08-23T09:30:40.389Z,3.2
2017-08-23T09:31:44.118Z,3.2
2017-08-23T09:32:46.639Z,3.2
2017-08-23T09:33:49.482Z,3.2
2017-08-23T09:34:52.019Z,3.2
2017-08-23T09:35:54.904Z,3.3
2017-08-23T09:36:57.427Z,3.5
2017-08-23T09:38:00.296Z,3.7
2017-08-23T09:39:02.820Z,3.7
2017-08-23T09:40:05.700Z,3.7
2017-08-23T09:41:09.264Z,3.7
2017-08-23T09:42:12.821Z,3.8
2017-08-23T09:43:15.696Z,3.7
2017-08-23T09:44:18.565Z,3.6
2017-08-23T09:45:21.132Z,3.8
2017-08-23T09:46:24.691Z,3.7
2017-08-23T09:47:27.224Z,3.7
2017-08-23T09:48:29.760Z,3.7
2017-08-23T09:49:32.269Z,3.8
2017-08-23T09:50:34.808Z,3.8
2017-08-23T09:51:37.344Z,3.7
2017-08-23T09:52:40.528Z,3.7
2017-08-23T09:53:43.050Z,3.7
2017-08-23T09:54:45.570Z,3.8
2017-08-23T09:55:48.099Z,3.8
2017-08-23T09:56:50.964Z,3.8
2017-08-23T09:57:53.491Z,3.7
2017-08-23T09:58:56.703Z,3.6
2017-08-23T09:59:59.239Z,3.5
2017-08-23T10:01:02.105Z,3.6
2017-08-23T10:02:04.621Z,3.6
2017-08-23T10:03:07.152Z,3.6
2017-08-23T10:04:09.674Z,3.5
2017-08-23T10:05:12.586Z,3.7
2017-08-23T10:06:15.121Z,3.6
2017-08-23T10:07:17.964Z,3.7
2017-08-23T10:08:20.513Z,3.7
2017-08-23T10:09:23.054Z,3.7
2017-08-23T10:10:25.577Z,3.7
2017-08-23T10:11:28.106Z,3.7
2017-08-23T10:12:30.957Z,3.7
2017-08-23T10:13:33.809Z,3.8
2017-08-23T10:14:36.358Z,3.8
2017-08-23T10:15:38.894Z,3.8
2017-08-23T10:16:41.796Z,3.8
2017-08-23T10:17:44.671Z,3.8
2017-08-23T10:18:47.194Z,3.9
2017-08-23T10:19:49.717Z,3.9
2017-08-23T10:20:52.606Z,3.9
2017-08-23T10:21:55.132Z,3.8
2017-08-23T10:22:58.351Z,3.8
2017-08-23T10:24:01.198Z,3.9
2017-08-23T10:25:04.078Z,3.9
2017-08-23T10:26:06.939Z,3.9
2017-08-23T10:27:09.470Z,3.9
2017-08-23T10:28:13.029Z,3.9
2017-08-23T10:29:15.900Z,3.9
2017-08-23T10:30:18.434Z,4
2017-08-23T10:31:21.321Z,3.9
2017-08-23T10:32:23.863Z,4
2017-08-23T10:33:26.406Z,3.9
2017-08-23T10:34:28.947Z,4
2017-08-23T10:35:31.475Z,4
2017-08-23T10:36:34.006Z,3.9
2017-08-23T10:37:36.876Z,3.9
2017-08-23T10:38:39.389Z,3.9
2017-08-23T10:39:42.295Z,4
2017-08-23T10:40:45.839Z,4
2017-08-23T10:41:48.741Z,4
2017-08-23T10:42:51.266Z,3.8
2017-08-23T10:43:53.841Z,4
2017-08-23T10:44:57.059Z,3.8
2017-08-23T10:45:59.604Z,4
2017-08-23T10:47:02.824Z,4
2017-08-23T10:48:05.681Z,4
2017-08-23T10:49:08.871Z,4
2017-08-23T10:50:11.418Z,4
2017-08-23T10:51:14.279Z,4.1
2017-08-23T10:52:16.792Z,4
2017-08-23T10:53:19.328Z,4.1
2017-08-23T10:54:21.876Z,4
2017-08-23T10:55:24.781Z,4
2017-08-23T10:56:27.316Z,4.1
2017-08-23T10:57:29.827Z,4.1
2017-08-23T10:58:32.712Z,4.2
2017-08-23T10:59:35.933Z,4.2
2017-08-23T11:00:39.163Z,4.2
2017-08-23T11:01:42.374Z,4.1
2017-08-23T11:02:44.894Z,4.3
2017-08-23T11:03:47.766Z,4.2
2017-08-23T11:04:51.001Z,4.1
2017-08-23T11:05:53.521Z,4.2
2017-08-23T11:06:56.380Z,4.2
2017-08-23T11:07:58.905Z,4.3
2017-08-23T11:09:02.452Z,4.3
2017-08-23T11:10:05.316Z,4.1
2017-08-23T11:11:08.519Z,4.3
2017-08-23T11:12:11.728Z,4.3
2017-08-23T11:13:14.979Z,4.1
2017-08-23T11:14:17.519Z,4.3
2017-08-23T11:15:20.062Z,4.2
2017-08-23T11:16:23.296Z,4.4
2017-08-23T11:17:26.177Z,4.2
2017-08-23T11:18:28.715Z,4.3
2017-08-23T11:19:31.926Z,4.3
2017-08-23T11:20:34.783Z,4.3
2017-08-23T11:21:37.648Z,4.3
2017-08-23T11:22:40.863Z,4.3
2017-08-23T11:23:43.419Z,4.3
2017-08-23T11:24:45.971Z,4.3
2017-08-23T11:25:48.486Z,4.3
2017-08-23T11:26:51.707Z,4.4
2017-08-23T11:27:54.234Z,4.4
2017-08-23T11:28:56.765Z,4.4
2017-08-23T11:29:59.297Z,4.3
2017-08-23T11:31:02.184Z,4.3
2017-08-23T11:32:05.094Z,4.4
2017-08-23T11:33:07.646Z,4.4
2017-08-23T11:34:10.865Z,4.3
2017-08-23T11:35:13.401Z,4.4
2017-08-23T11:36:15.937Z,4.2
2017-08-23T11:37:18.462Z,4.4
2017-08-23T11:38:21.031Z,4.3
2017-08-23T11:39:23.562Z,4.4
2017-08-23T11:40:26.159Z,4.3
2017-08-23T11:41:28.693Z,4.2
2017-08-23T11:42:31.575Z,4.2
2017-08-23T11:43:35.144Z,4.2
2017-08-23T11:44:38.018Z,4.2
2017-08-23T11:45:40.900Z,4.2
2017-08-23T11:46:43.761Z,4.2
2017-08-23T11:47:46.290Z,4.3
2017-08-23T11:48:48.842Z,4.3
2017-08-23T11:49:51.371Z,4.2
2017-08-23T11:50:54.281Z,4.3
2017-08-23T11:51:56.833Z,4.2
2017-08-23T11:52:59.704Z,4.2
2017-08-23T11:54:03.140Z,4.2
2017-08-23T11:55:06.082Z,4.2
2017-08-23T11:56:08.620Z,4.3
2017-08-23T11:57:11.159Z,4.3
2017-08-23T11:58:14.717Z,4.4
2017-08-23T11:59:17.252Z,4.3
2017-08-23T12:00:19.793Z,4.4
2017-08-23T12:01:22.655Z,4.4
2017-08-23T12:02:25.189Z,4.4
2017-08-23T12:03:28.056Z,4.4
2017-08-23T12:04:30.911Z,4.4
2017-08-23T12:05:33.458Z,4.4
2017-08-23T12:06:36.340Z,4.4
2017-08-23T12:07:38.861Z,4.5
2017-08-23T12:08:41.386Z,4.5
2017-08-23T12:09:44.248Z,4.3
2017-08-23T12:10:46.792Z,4.4
2017-08-23T12:11:49.334Z,4.4
2017-08-23T12:12:52.200Z,4.3
2017-08-23T12:13:54.719Z,4.3
2017-08-23T12:14:57.587Z,4.4
2017-08-23T12:16:01.158Z,4.4
2017-08-23T12:17:04.415Z,4.2
2017-08-23T12:18:06.958Z,4.4
2017-08-23T12:19:09.487Z,4.3
2017-08-23T12:20:12.018Z,4.4
2017-08-23T12:21:14.537Z,4.4
2017-08-23T12:22:17.402Z,4.5
2017-08-23T12:23:20.271Z,4.5
2017-08-23T12:24:22.804Z,4.5
2017-08-23T12:25:25.338Z,4.5
2017-08-23T12:26:27.866Z,4.5
2017-08-23T12:27:30.388Z,4.4
2017-08-23T12:28:32.933Z,4.5
2017-08-23T12:29:36.135Z,4.5
2017-08-23T12:30:39.697Z,4.5
2017-08-23T12:31:42.242Z,4.5
2017-08-23T12:32:44.768Z,4.4
2017-08-23T12:33:47.638Z,4.5
2017-08-23T12:34:50.843Z,4.5
2017-08-23T12:35:53.368Z,4.4
2017-08-23T12:36:55.888Z,4.5
2017-08-23T12:37:58.773Z,4.5
2017-08-23T12:39:01.964Z,4.5
2017-08-23T12:40:04.500Z,4.6
2017-08-23T12:41:07.352Z,4.5
2017-08-23T12:42:10.918Z,4.5
2017-08-23T12:43:13.798Z,4.3
2017-08-23T12:44:16.673Z,4.5
2017-08-23T12:45:19.200Z,4.5
2017-08-23T12:46:22.063Z,4.5
2017-08-23T12:47:25.292Z,4.6
2017-08-23T12:48:28.166Z,4.5
2017-08-23T12:49:31.042Z,4.5
2017-08-23T12:50:33.934Z,4.6
2017-08-23T12:51:36.472Z,4.5
2017-08-23T12:52:38.997Z,4.6
2017-08-23T12:53:41.536Z,4.6
2017-08-23T12:54:44.398Z,4.6
2017-08-23T12:55:46.950Z,4.6
2017-08-23T12:56:49.484Z,4.5
2017-08-23T12:57:52.701Z,4.5
2017-08-23T12:58:55.586Z,4.6
2017-08-23T12:59:58.458Z,4.5
2017-08-23T13:01:01.322Z,4.6
2017-08-23T13:02:04.535Z,4.6
2017-08-23T13:03:07.429Z,4.6
2017-08-23T13:04:10.642Z,4.7
2017-08-23T13:05:13.530Z,4.6
2017-08-23T13:06:16.752Z,4.7
2017-08-23T13:07:19.285Z,4.6
2017-08-23T13:08:21.806Z,4.5
2017-08-23T13:09:24.673Z,4.6
2017-08-23T13:10:27.545Z,4.6
2017-08-23T13:11:30.095Z,4.5
2017-08-23T13:12:32.978Z,4.5
2017-08-23T13:13:35.851Z,4.6
2017-08-23T13:14:38.376Z,4.6
2017-08-23T13:15:41.250Z,4.5
2017-08-23T13:16:43.794Z,4.6
2017-08-23T13:17:46.676Z,4.6
2017-08-23T13:18:49.217Z,4.6
2017-08-23T13:19:51.753Z,4.5
2017-08-23T13:20:54.671Z,4.5
2017-08-23T13:21:57.540Z,4.6
2017-08-23T13:23:00.753Z,4.6
2017-08-23T13:24:03.769Z,4.4
2017-08-23T13:25:06.736Z,4.6
2017-08-23T13:26:09.310Z,4.5
2017-08-23T13:27:12.491Z,4.4
2017-08-23T13:28:15.143Z,4.4
2017-08-23T13:29:17.673Z,4.6
2017-08-23T13:30:20.244Z,4.5
2017-08-23T13:31:23.173Z,4.5
2017-08-23T13:32:26.391Z,4.6
2017-08-23T13:33:28.915Z,4.6
2017-08-23T13:34:31.816Z,4.6
2017-08-23T13:35:34.340Z,4.7
2017-08-23T13:36:37.576Z,4.6
2017-08-23T13:37:40.119Z,4.5
2017-08-23T13:38:42.996Z,4.6
2017-08-23T13:39:45.872Z,4.5
2017-08-23T13:40:49.080Z,4.6
2017-08-23T13:41:51.947Z,4.7
2017-08-23T13:42:54.488Z,4.7
2017-08-23T13:43:57.369Z,4.7
2017-08-23T13:44:59.963Z,4.7
2017-08-23T13:46:03.582Z,4.6
2017-08-23T13:47:06.491Z,4.7
2017-08-23T13:48:09.031Z,4.7
2017-08-23T13:49:11.566Z,4.7
2017-08-23T13:50:14.109Z,4.8
2017-08-23T13:51:16.637Z,4.7
2017-08-23T13:52:19.221Z,4.8
2017-08-23T13:53:22.081Z,4.8
2017-08-23T13:54:24.611Z,4.8
2017-08-23T13:55:27.156Z,4.8
2017-08-23T13:56:29.681Z,4.9
2017-08-23T13:57:32.217Z,5
2017-08-23T13:58:34.772Z,4.8
2017-08-23T13:59:37.965Z,4.9
2017-08-23T14:00:41.186Z,5
2017-08-23T14:01:44.602Z,4.9
2017-08-23T14:02:48.181Z,4.9
2017-08-23T14:03:50.711Z,4.9
2017-08-23T14:04:53.940Z,4.9
2017-08-23T14:05:57.132Z,4.9
2017-08-23T14:07:00.352Z,4.8
2017-08-23T14:08:03.901Z,4.9
2017-08-23T14:09:06.779Z,4.8
2017-08-23T14:10:09.321Z,5
2017-08-23T14:11:12.200Z,5
2017-08-23T14:12:15.114Z,5
2017-08-23T14:13:18.004Z,5
2017-08-23T14:14:20.537Z,4.9
2017-08-23T14:15:23.067Z,5
2017-08-23T14:16:25.938Z,5.1
2017-08-23T14:17:28.518Z,5.1
2017-08-23T14:18:31.034Z,5.1
2017-08-23T14:19:33.573Z,5.1
2017-08-23T14:20:36.450Z,5.1
2017-08-23T14:21:38.994Z,5
2017-08-23T14:22:41.520Z,5
2017-08-23T14:23:44.066Z,5
2017-08-23T14:24:46.933Z,5
2017-08-23T14:25:49.833Z,5
2017-08-23T14:26:52.393Z,5
2017-08-23T14:27:55.939Z,4.9